Time;durP1;ratioP1;P1;durP2;ratioP2;P2;SDS_P1;SDS_P2;PMS_P1;PMS_P2;Temp;Humidity;BMP_temperature;BMP_pressure;BME280_temperature;BME280_humidity;BME280_pressure;Samples;Min_cycle;Max_cycle;Signal;HPM_P1;HPM_P2
2021/11/12 07:24:58;;;;;;;47.30;23.15;;;;;;;14.48;100.00;97316.97;2097521;28;20394;-67
2021/11/12 07:25:58;;;;;;;34.67;18.57;;;;;;;15.33;100.00;97309.38;2097720;28;20029;-69
2021/11/12 07:26:59;;;;;;;45.90;23.15;;;;;;;16.99;100.00;97314.75;2097502;28;20020;-72
2021/11/12 07:27:59;;;;;;;46.60;14.20;;;;;;;17.75;100.00;97310.13;2097031;28;20036;-63
2021/11/12 07:29:00;;;;;;;42.78;16.45;;;;;;;15.62;100.00;97308.91;2096829;28;20467;-73
2021/11/12 07:30:00;;;;;;;62.00;15.83;;;;;;;13.25;91.44;97311.38;2096970;28;20395;-78
2021/11/12 07:31:01;;;;;;;32.97;14.85;;;;;;;13.28;83.58;97308.78;2096530;28;20441;-77
2021/11/12 07:32:06;;;;;;;65.37;16.17;;;;;;;12.19;69.34;97307.75;2096954;28;20037;-78
2021/11/12 07:33:08;;;;;;;40.60;15.95;;;;;;;11.10;66.91;97314.06;2094766;28;20024;-78
2021/11/12 07:34:08;;;;;;;50.50;16.73;;;;;;;10.17;68.80;97312.13;2096125;28;20021;-77
2021/11/12 07:35:09;;;;;;;74.20;16.53;;;;;;;9.77;70.09;97318.78;2095925;28;20020;-77
2021/11/12 07:36:17;;;;;;;77.30;17.30;;;;;;;9.15;69.63;97334.44;2105222;28;20058;-76
2021/11/12 07:37:18;;;;;;;77.47;18.23;;;;;;;8.32;72.15;97325.28;2081655;28;20056;-77
2021/11/12 07:38:27;;;;;;;46.03;16.03;;;;;;;8.62;78.70;97333.41;2084323;28;20033;-77
2021/11/12 07:45:39;;;;;;;36.80;15.52;;;;;;;7.28;78.30;97337.88;2092907;28;20037;-76
2021/11/12 07:46:58;;;;;;;48.63;15.40;;;;;;;6.92;78.29;97343.19;2089297;28;20111;-77
2021/11/12 07:47:59;;;;;;;67.47;16.23;;;;;;;6.27;79.13;97337.09;2096900;28;20029;-76
2021/11/12 07:49:00;;;;;;;49.53;16.95;;;;;;;6.23;80.53;97334.22;2095508;28;20266;-77
2021/11/12 07:50:06;;;;;;;43.03;15.77;;;;;;;6.21;81.90;97338.28;2088419;28;20029;-76
2021/11/12 07:51:07;;;;;;;45.03;16.53;;;;;;;6.15;81.85;97336.78;2096215;28;20040;-77
2021/11/12 07:52:10;;;;;;;55.75;16.67;;;;;;;6.02;81.88;97335.63;2096771;28;20257;-77
2021/11/12 07:53:10;;;;;;;50.33;17.58;;;;;;;5.86;81.85;97329.66;2081631;28;20072;-77
2021/11/12 07:54:10;;;;;;;53.80;17.20;;;;;;;5.72;82.30;97322.63;2088541;28;20025;-77
2021/11/12 07:55:11;;;;;;;50.92;16.63;;;;;;;5.63;83.00;97333.22;2091689;28;20697;-77
2021/11/12 07:56:13;;;;;;;46.05;17.90;;;;;;;5.52;83.60;97334.47;2094431;28;20032;-77
2021/11/12 07:57:14;;;;;;;48.63;17.30;;;;;;;5.35;84.08;97331.47;2091112;28;20475;-77
2021/11/12 07:58:15;;;;;;;57.22;16.92;;;;;;;5.27;84.82;97332.13;2093294;28;20675;-77
2021/11/12 07:59:15;;;;;;;48.47;16.45;;;;;;;5.02;85.31;97335.94;2096331;28;20483;-76
2021/11/12 08:00:16;;;;;;;61.33;17.53;;;;;;;4.97;86.13;97334.09;2094722;28;20063;-77
2021/11/12 08:01:16;;;;;;;51.53;16.60;;;;;;;4.95;86.37;97325.56;2088959;28;20021;-76
2021/11/12 08:02:18;;;;;;;38.28;15.85;;;;;;;4.86;87.00;97323.78;2088565;28;20035;-77
2021/11/12 08:03:18;;;;;;;45.13;18.17;;;;;;;4.77;87.38;97328.16;2087522;28;20545;-77
2021/11/12 08:04:19;;;;;;;36.77;17.77;;;;;;;4.71;87.64;97322.06;2105153;28;20445;-78
2021/11/12 08:05:23;;;;;;;37.30;17.83;;;;;;;4.68;88.20;97325.34;2102025;28;20501;-77
2021/11/12 08:06:27;;;;;;;39.45;16.85;;;;;;;4.63;88.96;97333.41;2097118;28;20437;-77
2021/11/12 08:07:30;;;;;;;92.32;18.45;;;;;;;4.34;89.07;97328.06;2098470;28;20028;-77
2021/11/12 08:08:34;;;;;;;41.45;17.75;;;;;;;4.34;90.06;97336.91;2092732;28;20394;-76
2021/11/12 08:09:39;;;;;;;55.70;18.13;;;;;;;4.30;90.37;97329.72;2104965;28;20024;-76
2021/11/12 08:10:49;;;;;;;43.60;17.10;;;;;;;4.27;90.93;97330.28;2100495;28;20038;-77
2021/11/12 08:11:53;;;;;;;49.33;17.10;;;;;;;4.28;91.24;97329.19;2101524;28;20021;-77
2021/11/12 08:13:06;;;;;;;41.35;17.50;;;;;;;4.25;91.34;97327.09;2089765;28;20022;-77
2021/11/12 08:15:33;;;;;;;40.93;17.00;;;;;;;4.18;91.52;97319.41;2089316;28;20595;-77
2021/11/12 08:16:56;;;;;;;54.97;17.67;;;;;;;4.25;92.32;97317.19;2089281;28;20260;-76
2021/11/12 08:19:32;;;;;;;42.28;16.33;;;;;;;4.14;92.50;97307.63;2096894;28;20037;-77
2021/11/12 08:22:38;;;;;;;38.10;16.67;;;;;;;3.96;92.97;97299.50;2088207;28;20025;-76
2021/11/12 08:27:44;;;;;;;34.78;17.75;;;;;;;3.42;98.02;97306.56;2080462;28;20037;-77
2021/11/12 08:31:38;;;;;;;72.47;19.70;;;;;;;3.70;97.44;97301.56;2096235;28;20024;-77
2021/11/12 08:36:04;;;;;;;40.03;17.93;;;;;;;3.75;97.19;97296.19;2097160;28;20037;-77
2021/11/12 08:37:24;;;;;;;63.53;18.27;;;;;;;3.76;97.16;97300.47;2087926;28;20257;-76
2021/11/12 08:38:38;;;;;;;46.53;18.17;;;;;;;3.72;96.83;97294.84;2085273;28;20212;-76
2021/11/12 08:41:03;;;;;;;108.20;22.15;;;;;;;2.81;99.11;97302.63;2083150;28;20029;-76
2021/11/12 08:42:12;;;;;;;97.25;20.95;;;;;;;2.77;100.00;97309.59;2091056;28;20079;-76
2021/11/12 08:43:57;;;;;;;109.25;23.02;;;;;;;2.83;100.00;97309.31;2090067;28;20429;-76
2021/11/12 08:44:41;;;;;;;69.55;18.85;;;;;;;2.65;100.00;97307.22;2081341;28;20029;-77
2021/11/12 08:45:45;;;;;;;48.92;19.23;;;;;;;2.61;100.00;97309.63;2090153;28;20032;-77
2021/11/12 08:46:54;;;;;;;39.22;19.95;;;;;;;2.81;100.00;97300.75;2087534;28;20080;-77
2021/11/12 08:48:19;;;;;;;97.17;21.37;;;;;;;2.70;100.00;97305.31;2084358;28;20021;-77
2021/11/12 08:49:20;;;;;;;49.05;19.38;;;;;;;2.65;100.00;97308.00;2082432;28;20326;-77
2021/11/12 08:50:23;;;;;;;65.70;21.75;;;;;;;2.63;100.00;97309.38;2087877;28;20056;-77
2021/11/12 08:51:32;;;;;;;45.75;20.23;;;;;;;2.68;100.00;97304.81;2083102;28;20523;-77
2021/11/12 08:52:32;;;;;;;66.15;21.23;;;;;;;2.62;100.00;97308.56;2087331;28;20491;-77
2021/11/12 08:53:33;;;;;;;43.03;19.07;;;;;;;2.79;100.00;97305.56;2099161;28;20451;-76
2021/11/12 08:54:37;;;;;;;97.13;21.85;;;;;;;2.97;100.00;97296.94;2099170;28;20108;-76
2021/11/12 08:55:39;;;;;;;79.80;21.33;;;;;;;3.03;100.00;97298.50;2088493;28;20037;-76
2021/11/12 08:56:40;;;;;;;95.90;21.23;;;;;;;3.09;100.00;97300.06;2082745;28;20070;-77
2021/11/12 08:57:40;;;;;;;76.77;21.00;;;;;;;3.09;100.00;97297.41;2086037;28;20486;-77
2021/11/12 08:58:42;;;;;;;83.55;21.25;;;;;;;3.14;100.00;97292.03;2082803;28;20072;-78
2021/11/12 08:59:47;;;;;;;76.70;20.10;;;;;;;2.96;100.00;97299.88;2081866;28;20079;-77
2021/11/12 09:00:48;;;;;;;83.95;22.52;;;;;;;2.61;100.00;97300.81;2083714;28;20337;-77
2021/11/12 09:01:48;;;;;;;59.78;20.70;;;;;;;2.88;100.00;97298.56;2082561;28;20017;-77
2021/11/12 09:02:51;;;;;;;124.97;23.00;;;;;;;2.86;100.00;97297.25;2090911;28;20029;-77
2021/11/12 09:03:54;;;;;;;104.95;22.17;;;;;;;2.96;100.00;97299.88;2091025;28;20045;-77
2021/11/12 09:04:55;;;;;;;43.40;21.75;;;;;;;2.83;100.00;97289.78;2090311;28;20025;-80
2021/11/12 09:05:55;;;;;;;61.47;21.50;;;;;;;2.73;100.00;97299.44;2076982;28;20030;-78
2021/11/12 09:06:56;;;;;;;50.13;22.87;;;;;;;2.77;100.00;97290.88;2082691;28;20025;-78
2021/11/12 09:07:57;;;;;;;63.80;21.07;;;;;;;2.60;100.00;97294.69;2089389;28;20424;-78
2021/11/12 09:08:57;;;;;;;51.08;21.05;;;;;;;2.83;100.00;97292.47;2078850;28;20060;-79
2021/11/12 09:09:58;;;;;;;42.90;21.17;;;;;;;2.97;100.00;97290.78;2087562;28;20025;-77
2021/11/12 09:11:00;;;;;;;43.22;21.10;;;;;;;3.04;100.00;97291.28;2090520;28;20552;-78
2021/11/12 09:12:01;;;;;;;41.83;20.10;;;;;;;3.11;100.00;97292.59;2084980;28;20030;-77
2021/11/12 09:13:20;;;;;;;47.53;21.20;;;;;;;3.01;100.00;97292.63;2090223;28;20032;-78
2021/11/12 09:14:24;;;;;;;44.38;20.67;;;;;;;2.91;100.00;97291.91;2088495;28;20493;-77
2021/11/12 09:15:32;;;;;;;37.95;20.33;;;;;;;2.84;100.00;97291.38;2087811;28;20127;-80
2021/11/12 09:16:35;;;;;;;38.20;20.23;;;;;;;2.96;100.00;97290.00;2081473;28;20048;-77
2021/11/12 09:17:35;;;;;;;39.13;21.10;;;;;;;3.05;100.00;97298.25;2074585;28;20030;-77
2021/11/12 09:18:36;;;;;;;38.47;20.20;;;;;;;3.05;100.00;97296.38;2075579;28;20112;-77
2021/11/12 09:19:46;;;;;;;39.53;20.85;;;;;;;2.96;100.00;97295.34;2076899;28;20018;-78
2021/11/12 09:20:46;;;;;;;47.38;21.23;;;;;;;2.96;100.00;97303.34;2082290;28;20025;-77
2021/11/12 09:21:47;;;;;;;35.93;20.33;;;;;;;3.09;100.00;97299.28;2088048;28;20013;-77
2021/11/12 09:22:48;;;;;;;34.22;20.02;;;;;;;3.18;100.00;97296.84;2092661;28;20020;-78
2021/11/12 09:23:48;;;;;;;33.17;19.63;;;;;;;3.23;100.00;97302.94;2095311;28;20020;-76
2021/11/12 09:24:49;;;;;;;32.80;19.65;;;;;;;3.22;100.00;97289.84;2098792;28;20056;-76
2021/11/12 09:25:50;;;;;;;32.13;19.08;;;;;;;3.26;100.00;97294.38;2081782;28;20029;-76
2021/11/12 09:26:51;;;;;;;33.08;19.08;;;;;;;3.11;100.00;97295.25;2090739;28;20470;-76
2021/11/12 09:27:52;;;;;;;32.70;19.50;;;;;;;3.28;100.00;97294.88;2091069;28;20029;-76
2021/11/12 09:28:52;;;;;;;33.17;19.67;;;;;;;3.36;100.00;97296.97;2091247;28;20040;-76
2021/11/12 09:29:53;;;;;;;32.28;19.88;;;;;;;3.44;100.00;97292.91;2089973;28;20032;-76
2021/11/12 09:30:53;;;;;;;31.02;18.88;;;;;;;3.42;100.00;97293.19;2088383;28;20371;-76
2021/11/12 09:31:54;;;;;;;30.47;19.23;;;;;;;3.47;100.00;97297.72;2082296;28;20032;-76
2021/11/12 09:32:56;;;;;;;30.80;19.02;;;;;;;3.40;100.00;97294.56;2082395;28;20030;-77
2021/11/12 09:33:58;;;;;;;29.73;18.73;;;;;;;3.47;100.00;97295.84;2082990;28;20029;-77
2021/11/12 09:34:58;;;;;;;31.90;18.90;;;;;;;3.51;100.00;97294.22;2090510;28;20151;-76
2021/11/12 09:35:58;;;;;;;30.23;19.05;;;;;;;3.48;99.90;97292.06;2087175;28;20037;-76
2021/11/12 09:36:59;;;;;;;31.80;20.13;;;;;;;3.51;99.68;97296.09;2085473;28;20036;-76
2021/11/12 09:37:59;;;;;;;30.93;19.03;;;;;;;3.41;100.00;97296.94;2088820;28;20055;-76
2021/11/12 09:39:00;;;;;;;31.67;19.50;;;;;;;3.50;100.00;97281.91;2076402;28;20029;-76
2021/11/12 09:40:00;;;;;;;33.17;19.15;;;;;;;3.47;100.00;97295.06;2079884;28;20026;-77
2021/11/12 09:41:03;;;;;;;29.70;18.67;;;;;;;3.57;100.00;97296.84;2090390;28;20029;-76
2021/11/12 09:42:05;;;;;;;30.65;18.88;;;;;;;3.61;99.69;97293.34;2090590;28;20021;-77
2021/11/12 09:43:05;;;;;;;32.22;19.73;;;;;;;3.62;99.34;97288.81;2082305;28;20044;-77
2021/11/12 09:44:07;;;;;;;31.67;19.60;;;;;;;3.61;99.11;97289.88;2082224;28;20089;-77
2021/11/12 09:45:10;;;;;;;31.00;18.85;;;;;;;3.38;99.31;97302.88;2089549;28;20083;-77
2021/11/12 09:46:10;;;;;;;31.00;18.85;;;;;;;3.07;99.15;97296.88;2090870;28;20037;-77
2021/11/12 09:47:11;;;;;;;32.55;19.52;;;;;;;3.08;99.67;97295.00;2082420;28;20037;-78
2021/11/12 09:48:11;;;;;;;30.48;19.15;;;;;;;3.27;100.00;97297.84;2080781;28;20068;-77
2021/11/12 09:49:11;;;;;;;32.30;19.83;;;;;;;3.35;100.00;97294.56;2082355;28;20056;-77
2021/11/12 09:50:18;;;;;;;31.73;19.40;;;;;;;3.40;99.91;97300.72;2076808;28;20025;-77
2021/11/12 09:51:18;;;;;;;34.88;20.05;;;;;;;3.42;99.66;97300.41;2083095;28;20557;-77
2021/11/12 09:52:18;;;;;;;32.20;18.57;;;;;;;3.49;99.38;97296.34;2090697;28;20441;-77
2021/11/12 09:53:20;;;;;;;36.53;21.15;;;;;;;3.58;99.85;97291.22;2088681;28;20060;-78
2021/11/12 09:54:22;;;;;;;36.70;20.38;;;;;;;3.65;99.89;97296.25;2082613;28;20108;-78
2021/11/12 09:55:24;;;;;;;32.67;19.90;;;;;;;3.69;99.27;97295.44;2093137;28;20024;-76
2021/11/12 09:56:24;;;;;;;32.22;19.63;;;;;;;3.76;99.22;97293.25;2094595;28;20254;-77
2021/11/12 09:57:25;;;;;;;34.05;19.90;;;;;;;3.82;98.62;97288.63;2086771;28;20025;-76
2021/11/12 09:58:25;;;;;;;36.17;20.65;;;;;;;3.89;98.26;97289.91;2081930;28;20032;-76
2021/11/12 09:59:32;;;;;;;35.53;20.85;;;;;;;3.86;97.51;97281.63;2090425;28;20082;-76
2021/11/12 10:00:34;;;;;;;36.83;20.42;;;;;;;3.89;97.34;97284.56;2089958;28;20043;-76
2021/11/12 10:01:39;;;;;;;35.63;20.88;;;;;;;3.92;96.89;97281.31;2090433;28;20020;-77
2021/11/12 10:02:42;;;;;;;35.57;19.97;;;;;;;3.62;97.61;97278.91;2089900;28;20467;-76
2021/11/12 10:03:45;;;;;;;34.45;20.02;;;;;;;3.86;97.87;97278.94;2082058;28;20269;-77
2021/11/12 10:04:47;;;;;;;36.50;20.70;;;;;;;3.89;97.25;97275.72;2082031;28;20034;-77
2021/11/12 10:05:49;;;;;;;34.50;20.70;;;;;;;4.01;97.14;97272.66;2089314;28;20052;-76
2021/11/12 10:06:50;;;;;;;36.83;21.10;;;;;;;4.15;96.20;97271.72;2083463;28;20032;-77
2021/11/12 10:07:50;;;;;;;36.87;21.17;;;;;;;4.29;95.51;97278.03;2073814;28;20033;-77
2021/11/12 10:08:52;;;;;;;37.63;21.30;;;;;;;4.29;95.51;97272.66;2081132;28;20341;-76
2021/11/12 10:10:11;;;;;;;38.40;21.95;;;;;;;4.39;94.50;97262.94;2081908;28;20026;-76
2021/11/12 10:11:19;;;;;;;37.93;21.00;;;;;;;4.53;94.04;97255.81;2083911;28;20025;-77
2021/11/12 10:12:19;;;;;;;36.83;20.75;;;;;;;4.51;93.81;97261.44;2082710;28;20783;-77
2021/11/12 10:13:31;;;;;;;38.05;20.77;;;;;;;4.39;94.00;97250.31;2079560;28;20406;-77
2021/11/12 10:16:02;;;;;;;37.42;20.40;;;;;;;4.43;93.84;97245.97;2084106;28;20274;-76
2021/11/12 10:17:03;;;;;;;40.28;21.27;;;;;;;4.47;93.49;97249.72;2084752;28;20025;-77
2021/11/12 10:18:08;;;;;;;36.40;20.38;;;;;;;4.51;93.10;97249.91;2088216;28;20033;-77
2021/11/12 10:19:19;;;;;;;36.20;20.83;;;;;;;4.44;93.04;97249.47;2081837;28;20017;-76
2021/11/12 10:20:22;;;;;;;39.47;20.87;;;;;;;4.43;93.24;97248.66;2081347;28;20025;-77
2021/11/12 10:21:26;;;;;;;42.50;20.83;;;;;;;4.35;93.03;97249.28;2074036;28;20649;-76
2021/11/12 10:22:32;;;;;;;40.28;22.10;;;;;;;3.98;93.54;97244.56;2074433;28;20431;-76
2021/11/12 10:23:35;;;;;;;41.35;21.77;;;;;;;3.85;94.49;97240.66;2081739;28;20068;-76
2021/11/12 10:24:40;;;;;;;39.88;21.90;;;;;;;4.05;95.17;97252.28;2081615;28;20120;-76
2021/11/12 10:26:00;;;;;;;41.78;22.90;;;;;;;3.85;95.68;97247.91;2091791;28;20071;-76
2021/11/12 10:27:12;;;;;;;39.60;21.50;;;;;;;3.71;95.92;97252.31;2098501;28;20016;-75
2021/11/12 10:28:33;;;;;;;42.47;21.30;;;;;;;3.77;97.39;97243.16;2090648;28;20107;-76
2021/11/12 10:29:45;;;;;;;42.00;21.17;;;;;;;3.96;97.64;97248.63;2081703;28;20021;-76
2021/11/12 10:30:45;;;;;;;41.55;21.20;;;;;;;3.91;97.46;97244.09;2088651;28;20079;-75
2021/11/12 10:31:49;;;;;;;43.33;21.30;;;;;;;4.04;97.46;97239.97;2081774;28;20029;-75
2021/11/12 10:32:54;;;;;;;38.72;21.55;;;;;;;4.15;97.11;97233.44;2085713;28;20060;-78
2021/11/12 10:33:54;;;;;;;40.55;21.92;;;;;;;4.10;96.51;97236.97;2086780;28;20028;-76
2021/11/12 10:35:01;;;;;;;43.47;22.63;;;;;;;4.13;96.42;97233.72;2089798;28;20530;-75
2021/11/12 10:36:01;;;;;;;45.50;21.08;;;;;;;4.17;95.98;97231.28;2089300;28;20446;-76
2021/11/12 10:37:06;;;;;;;40.17;21.37;;;;;;;4.15;95.84;97231.56;2089979;28;20103;-76
2021/11/12 10:38:10;;;;;;;40.10;21.50;;;;;;;4.17;95.74;97229.41;2089348;28;20063;-77
2021/11/12 10:39:11;;;;;;;39.55;21.58;;;;;;;4.20;95.84;97225.31;2089765;28;20494;-78
2021/11/12 10:40:15;;;;;;;41.97;21.83;;;;;;;4.24;95.83;97226.38;2081408;28;20021;-78
2021/11/12 10:41:22;;;;;;;42.60;22.23;;;;;;;4.16;95.70;97230.47;2087830;28;20021;-75
2021/11/12 10:42:25;;;;;;;42.72;21.90;;;;;;;4.15;95.68;97228.06;2090370;28;20020;-77
2021/11/12 10:43:26;;;;;;;46.92;23.13;;;;;;;4.00;96.06;97228.22;2098117;28;20024;-78
2021/11/12 10:44:28;;;;;;;43.67;23.93;;;;;;;3.81;96.67;97231.63;2098303;28;20052;-78
2021/11/12 10:45:31;;;;;;;46.47;24.52;;;;;;;3.69;98.09;97231.19;2093418;28;20064;-75
2021/11/12 10:46:43;;;;;;;43.90;21.15;;;;;;;3.97;98.67;97232.28;2087156;28;20376;-75
2021/11/12 10:47:48;;;;;;;43.83;22.33;;;;;;;4.00;98.35;97234.38;2089486;28;20024;-75
2021/11/12 10:48:48;;;;;;;44.72;21.67;;;;;;;4.17;98.31;97225.91;2093230;28;20025;-77
2021/11/12 10:50:00;;;;;;;46.67;22.53;;;;;;;4.27;97.92;97236.50;2081247;28;20028;-75
2021/11/12 10:51:22;;;;;;;39.65;20.92;;;;;;;4.17;97.76;97232.06;2086421;28;20021;-76
2021/11/12 10:52:24;;;;;;;43.00;21.92;;;;;;;4.23;97.72;97238.97;2087190;28;20491;-78
2021/11/12 10:53:25;;;;;;;43.38;22.67;;;;;;;4.27;97.37;97239.97;2082250;28;20034;-78
2021/11/12 10:54:40;;;;;;;41.37;22.43;;;;;;;4.32;97.01;97234.59;2082413;28;20028;-78
2021/11/12 10:55:43;;;;;;;42.45;22.05;;;;;;;4.23;96.80;97232.81;2088064;28;20025;-78
2021/11/12 10:56:49;;;;;;;44.38;23.15;;;;;;;4.16;96.97;97227.78;2089881;28;20021;-75
2021/11/12 10:58:06;;;;;;;44.07;23.43;;;;;;;4.16;97.15;97214.41;2083064;28;20021;-75
2021/11/12 10:59:07;;;;;;;41.72;22.35;;;;;;;4.24;97.22;97221.03;2081239;28;20270;-76
2021/11/12 11:00:08;;;;;;;42.20;22.13;;;;;;;4.30;97.24;97214.50;2073192;28;20084;-76
2021/11/12 11:01:12;;;;;;;44.20;23.38;;;;;;;4.31;97.34;97208.09;2073244;28;20032;-75
2021/11/12 11:02:36;;;;;;;41.80;21.98;;;;;;;4.30;97.16;97209.97;2081585;28;20414;-76
2021/11/12 11:03:36;;;;;;;42.63;22.48;;;;;;;4.30;97.71;97211.84;2082126;28;20037;-76
2021/11/12 11:04:41;;;;;;;43.03;22.73;;;;;;;4.43;97.89;97213.81;2081207;28;20077;-76
2021/11/12 11:05:56;;;;;;;43.10;23.63;;;;;;;4.54;97.63;97199.25;2073539;28;20048;-76
2021/11/12 11:07:20;;;;;;;42.58;22.20;;;;;;;4.50;96.15;97198.19;2081845;28;20030;-75
2021/11/12 11:08:24;;;;;;;42.60;22.05;;;;;;;4.56;95.16;97197.03;2086890;28;20526;-76
2021/11/12 11:09:55;;;;;;;41.78;22.65;;;;;;;4.57;94.88;97187.13;2073748;28;20030;-75
2021/11/12 11:11:04;;;;;;;39.83;21.70;;;;;;;4.65;94.64;97181.13;2088747;28;20060;-76
2021/11/12 11:12:05;;;;;;;41.13;22.07;;;;;;;4.63;94.38;97177.94;2086855;28;20082;-76
2021/11/12 11:13:10;;;;;;;38.42;22.63;;;;;;;4.58;94.21;97178.00;2081404;28;20328;-76
2021/11/12 11:14:32;;;;;;;40.30;21.58;;;;;;;4.56;94.16;97182.84;2081504;28;20079;-78
2021/11/12 11:15:36;;;;;;;38.22;21.50;;;;;;;4.58;93.82;97180.69;2081218;28;20031;-75
2021/11/12 11:16:37;;;;;;;45.42;23.15;;;;;;;4.57;93.77;97185.25;2081608;28;20018;-75
2021/11/12 11:17:46;;;;;;;40.00;22.67;;;;;;;4.51;93.71;97175.69;2082111;28;20030;-78
2021/11/12 11:18:52;;;;;;;42.23;22.20;;;;;;;4.54;93.74;97177.78;2085387;28;20048;-77
2021/11/12 11:19:54;;;;;;;42.00;22.58;;;;;;;4.50;93.69;97176.75;2089728;28;20345;-75
2021/11/12 11:21:02;;;;;;;43.80;23.27;;;;;;;4.52;93.33;97179.16;2073281;28;20022;-76
2021/11/12 11:22:06;;;;;;;44.05;22.08;;;;;;;4.50;93.31;97166.03;2081623;28;20471;-76
2021/11/12 11:23:07;;;;;;;43.80;23.13;;;;;;;4.15;94.30;97171.81;2081853;28;20087;-75
2021/11/12 11:24:08;;;;;;;41.22;23.33;;;;;;;4.25;94.62;97161.00;2081850;28;20072;-76
2021/11/12 11:25:10;;;;;;;43.00;22.70;;;;;;;4.27;94.71;97162.28;2081354;28;20117;-76
2021/11/12 11:26:11;;;;;;;40.53;23.17;;;;;;;4.34;95.28;97168.09;2081383;28;20316;-76
2021/11/12 11:27:12;;;;;;;46.15;22.80;;;;;;;4.41;95.35;97165.06;2081926;28;20100;-75
2021/11/12 11:28:12;;;;;;;41.25;22.83;;;;;;;4.46;95.46;97164.22;2093217;28;20021;-76
2021/11/12 11:29:16;;;;;;;43.15;23.70;;;;;;;4.46;94.93;97173.06;2081273;28;20025;-76
2021/11/12 11:30:17;;;;;;;41.20;22.38;;;;;;;4.47;94.29;97174.66;2084752;28;20029;-76
2021/11/12 11:31:17;;;;;;;40.23;22.17;;;;;;;4.52;93.97;97169.25;2089745;28;20039;-77
2021/11/12 11:32:18;;;;;;;41.53;23.50;;;;;;;4.55;93.97;97165.16;2088019;28;20025;-78
2021/11/12 11:33:19;;;;;;;42.30;23.67;;;;;;;4.51;93.92;97169.50;2089736;28;20497;-76
2021/11/12 11:34:22;;;;;;;40.38;23.38;;;;;;;4.51;94.02;97164.16;2081307;28;20112;-76
2021/11/12 11:35:23;;;;;;;38.72;22.73;;;;;;;4.54;93.55;97158.22;2073325;28;20059;-76
2021/11/12 11:36:26;;;;;;;43.17;24.07;;;;;;;4.53;93.65;97156.63;2088369;28;20421;-76
2021/11/12 11:37:27;;;;;;;39.83;23.77;;;;;;;4.53;93.57;97152.06;2089498;28;20029;-76
2021/11/12 11:38:30;;;;;;;41.17;22.88;;;;;;;4.48;93.64;97146.75;2090025;28;20037;-77
2021/11/12 11:39:30;;;;;;;44.88;23.20;;;;;;;4.50;93.75;97143.78;2097905;28;20427;-77
2021/11/12 11:40:32;;;;;;;40.47;23.53;;;;;;;4.53;93.61;97148.59;2092603;28;20091;-76
2021/11/12 11:41:33;;;;;;;38.88;22.83;;;;;;;4.51;93.20;97146.19;2086463;28;20029;-76
2021/11/12 11:42:34;;;;;;;40.58;23.02;;;;;;;4.40;93.90;97152.78;2089076;28;20364;-78
2021/11/12 11:43:36;;;;;;;42.80;24.10;;;;;;;4.43;94.64;97143.34;2076197;28;20422;-78
2021/11/12 11:44:38;;;;;;;41.90;23.13;;;;;;;4.47;94.49;97145.19;2073211;28;20068;-77
2021/11/12 11:45:39;;;;;;;41.25;23.88;;;;;;;4.47;94.64;97147.06;2081397;28;20052;-77
2021/11/12 11:46:43;;;;;;;41.92;23.85;;;;;;;4.27;94.70;97148.09;2081435;28;20354;-77
2021/11/12 11:47:44;;;;;;;43.05;23.23;;;;;;;4.28;95.23;97142.47;2086733;28;20021;-77
2021/11/12 11:48:45;;;;;;;40.93;22.53;;;;;;;4.30;95.58;97148.34;2089584;28;20029;-76
2021/11/12 11:49:51;;;;;;;39.88;23.25;;;;;;;4.28;95.74;97150.50;2089562;28;20272;-75
2021/11/12 11:50:57;;;;;;;37.22;21.67;;;;;;;4.37;95.60;97152.53;2085160;28;20053;-75
2021/11/12 11:52:00;;;;;;;40.25;23.52;;;;;;;4.43;95.28;97141.47;2081324;28;20021;-76
2021/11/12 11:53:25;;;;;;;37.35;22.67;;;;;;;4.55;95.14;97143.72;2086860;28;20032;-75
2021/11/12 11:54:43;;;;;;;38.77;21.93;;;;;;;4.53;94.73;97136.00;2081969;28;20364;-75
2021/11/12 11:55:44;;;;;;;41.13;22.38;;;;;;;4.54;94.00;97140.28;2081876;28;20720;-76
2021/11/12 11:56:58;;;;;;;39.92;21.98;;;;;;;4.53;93.79;97141.34;2087085;28;20430;-75
2021/11/12 11:58:36;;;;;;;39.53;21.43;;;;;;;4.52;93.74;97147.00;2090116;28;20052;-76
2021/11/12 11:59:36;;;;;;;38.42;20.92;;;;;;;4.46;93.72;97145.47;2089437;28;20356;-78
2021/11/12 12:00:36;;;;;;;40.03;23.58;;;;;;;4.46;94.00;97142.78;2089164;28;20021;-76
2021/11/12 12:01:54;;;;;;;41.83;23.07;;;;;;;4.48;94.24;97141.41;2089351;28;20140;-76
2021/11/12 12:03:20;;;;;;;38.47;22.35;;;;;;;4.47;94.21;97144.38;2089816;28;20028;-76
2021/11/12 12:04:22;;;;;;;38.42;22.60;;;;;;;4.45;93.88;97135.84;2089598;28;20112;-76
2021/11/12 12:05:23;;;;;;;39.95;23.35;;;;;;;4.43;94.04;97140.66;2096274;28;20422;-75
2021/11/12 12:06:23;;;;;;;41.77;24.40;;;;;;;4.39;94.81;97128.94;2063193;28;20034;-75
2021/11/12 12:07:40;;;;;;;47.23;24.40;;;;;;;4.42;95.08;97123.78;2064061;28;20027;-77
2021/11/12 12:08:52;;;;;;;40.28;23.88;;;;;;;4.37;95.69;97118.50;2055042;28;20029;-76
2021/11/12 12:10:00;;;;;;;41.90;24.05;;;;;;;4.44;95.51;97120.84;2056706;28;20019;-76
2021/11/12 12:11:27;;;;;;;42.08;24.15;;;;;;;4.40;95.00;97119.81;2063838;28;20022;-78
2021/11/12 12:12:30;;;;;;;39.83;23.15;;;;;;;4.41;94.93;97119.50;2068454;28;20556;-75
2021/11/12 12:13:30;;;;;;;42.85;23.83;;;;;;;4.42;94.83;97115.75;2065909;28;20030;-77
2021/11/12 12:14:33;;;;;;;40.83;24.80;;;;;;;4.46;95.03;97107.94;2064724;28;20078;-75
2021/11/12 12:15:36;;;;;;;43.60;24.17;;;;;;;4.51;95.07;97110.56;2058968;28;20033;-78
2021/11/12 12:16:38;;;;;;;38.13;22.25;;;;;;;4.49;94.93;97108.16;2059096;28;20026;-78
2021/11/12 12:17:41;;;;;;;38.65;22.60;;;;;;;4.55;95.10;97100.84;2058879;28;20058;-75
2021/11/12 12:18:47;;;;;;;43.70;23.23;;;;;;;4.53;95.22;97098.47;2062013;28;20038;-75
2021/11/12 12:19:57;;;;;;;40.80;22.85;;;;;;;4.55;94.94;97098.16;2066762;28;20045;-78
2021/11/12 12:35:51;;;;;;;42.83;24.52;;;;;;;4.26;97.00;97074.19;2067032;28;20076;-73
2021/11/12 12:38:55;;;;;;;42.33;23.83;;;;;;;4.26;96.95;97072.28;2066450;28;20268;-73
2021/11/12 13:19:46;;;;;;;45.47;26.13;;;;;;;4.27;98.92;97047.09;2058524;28;20500;-73
2021/11/12 13:21:01;;;;;;;48.92;26.60;;;;;;;4.32;99.07;97046.25;2057814;28;20272;-73
2021/11/12 13:22:02;;;;;;;44.75;25.63;;;;;;;4.32;99.17;97048.94;2058025;28;20094;-73
2021/11/12 13:24:39;;;;;;;45.92;26.65;;;;;;;4.35;99.19;97048.31;2057718;28;20046;-74
2021/11/12 13:25:47;;;;;;;46.53;26.42;;;;;;;4.33;99.45;97040.56;2057552;28;20042;-73
2021/11/12 13:27:01;;;;;;;47.58;26.15;;;;;;;4.34;99.43;97041.38;2057782;28;20034;-73
2021/11/12 13:28:07;;;;;;;45.33;26.20;;;;;;;4.30;99.57;97030.44;2058361;28;20034;-74
2021/11/12 13:29:07;;;;;;;48.25;27.15;;;;;;;4.31;99.65;97034.72;2058297;28;20081;-73
2021/11/12 13:30:08;;;;;;;47.97;27.27;;;;;;;4.28;99.74;97042.53;2057922;28;20030;-73
2021/11/12 13:31:22;;;;;;;46.35;26.15;;;;;;;4.29;99.51;97036.09;2058287;28;20014;-73
2021/11/12 13:32:22;;;;;;;46.37;26.03;;;;;;;4.27;99.73;97043.63;2058271;28;20030;-73
2021/11/12 13:33:38;;;;;;;48.45;26.83;;;;;;;4.28;99.66;97046.00;2057680;28;20276;-73
2021/11/12 13:34:44;;;;;;;44.67;25.83;;;;;;;4.31;99.93;97050.81;2059491;28;20082;-73
2021/11/12 13:35:44;;;;;;;48.83;25.80;;;;;;;4.33;100.00;97045.94;2057434;28;20038;-73
2021/11/12 13:36:45;;;;;;;46.03;25.60;;;;;;;4.26;99.76;97042.03;2057720;28;20786;-73
2021/11/12 13:37:52;;;;;;;48.40;27.20;;;;;;;4.26;99.89;97042.81;2058204;28;20053;-73
2021/11/12 13:39:02;;;;;;;48.40;26.60;;;;;;;4.25;99.87;97045.81;2058264;28;20491;-73
2021/11/12 13:40:03;;;;;;;47.42;27.15;;;;;;;4.22;100.00;97041.81;2058077;28;20370;-73
2021/11/12 13:41:07;;;;;;;48.55;26.92;;;;;;;4.20;100.00;97043.19;2065486;28;20084;-73
2021/11/12 13:42:09;;;;;;;47.40;26.10;;;;;;;4.19;100.00;97039.69;2065488;28;20030;-73
2021/11/12 13:43:10;;;;;;;49.63;27.10;;;;;;;4.21;100.00;97036.75;2065426;28;20296;-73
2021/11/12 13:44:16;;;;;;;49.90;27.75;;;;;;;4.19;100.00;97037.03;2058074;28;20052;-74
2021/11/12 13:45:19;;;;;;;48.42;26.95;;;;;;;4.22;100.00;97032.97;2057551;28;20035;-73
2021/11/12 13:46:20;;;;;;;54.45;27.70;;;;;;;4.16;100.00;97031.47;2057272;28;20043;-74